sensor_id;sensor_type;location;lat;lon;timestamp;temperature;humidity
2260;DHT22;333;48.800;9.530;2023-12-07T00:00:28;1.90;99.60
2260;DHT22;333;48.800;9.530;2023-12-07T00:02:55;1.80;99.60
2260;DHT22;333;48.800;9.530;2023-12-07T00:05:22;2.00;99.60
2260;DHT22;333;48.800;9.530;2023-12-07T00:07:51;2.00;99.60
2260;DHT22;333;48.800;9.530;2023-12-07T00:10:18;1.90;99.60
2260;DHT22;333;48.800;9.530;2023-12-07T00:12:45;1.90;99.60
2260;DHT22;333;48.800;9.530;2023-12-07T00:15:12;2.00;99.60
2260;DHT22;333;48.800;9.530;2023-12-07T00:17:39;1.90;99.60
2260;DHT22;333;48.800;9.530;2023-12-07T00:20:06;1.90;99.60
2260;DHT22;333;48.800;9.530;2023-12-07T00:22:34;1.90;99.60
2260;DHT22;333;48.800;9.530;2023-12-07T00:25:02;2.00;99.60
2260;DHT22;333;48.800;9.530;2023-12-07T00:27:29;2.00;99.60
2260;DHT22;333;48.800;9.530;2023-12-07T00:29:56;1.90;99.60
2260;DHT22;333;48.800;9.530;2023-12-07T00:32:23;1.80;99.60
2260;DHT22;333;48.800;9.530;2023-12-07T00:34:51;1.70;99.60
2260;DHT22;333;48.800;9.530;2023-12-07T00:37:18;1.70;99.60
2260;DHT22;333;48.800;9.530;2023-12-07T00:39:45;1.80;99.60
2260;DHT22;333;48.800;9.530;2023-12-07T00:42:13;1.80;99.60
2260;DHT22;333;48.800;9.530;2023-12-07T00:44:41;1.70;99.60
2260;DHT22;333;48.800;9.530;2023-12-07T00:47:08;1.60;99.60
2260;DHT22;333;48.800;9.530;2023-12-07T00:49:37;1.60;99.60
2260;DHT22;333;48.800;9.530;2023-12-07T00:52:05;1.60;99.60
2260;DHT22;333;48.800;9.530;2023-12-07T00:54:33;1.60;99.60
2260;DHT22;333;48.800;9.530;2023-12-07T00:57:00;1.80;99.60
2260;DHT22;333;48.800;9.530;2023-12-07T00:59:28;1.70;99.60
2260;DHT22;333;48.800;9.530;2023-12-07T01:02:00;1.60;99.60
2260;DHT22;333;48.800;9.530;2023-12-07T01:04:27;1.60;99.60
2260;DHT22;333;48.800;9.530;2023-12-07T01:06:54;1.70;99.60
2260;DHT22;333;48.800;9.530;2023-12-07T01:09:21;1.80;99.60
2260;DHT22;333;48.800;9.530;2023-12-07T01:11:48;1.80;99.60
2260;DHT22;333;48.800;9.530;2023-12-07T01:14:16;1.60;99.60
2260;DHT22;333;48.800;9.530;2023-12-07T01:16:45;1.60;99.60
2260;DHT22;333;48.800;9.530;2023-12-07T01:19:12;1.50;99.60
2260;DHT22;333;48.800;9.530;2023-12-07T01:21:40;1.60;99.60
2260;DHT22;333;48.800;9.530;2023-12-07T01:24:07;1.60;99.60
2260;DHT22;333;48.800;9.530;2023-12-07T01:26:34;1.80;99.60
2260;DHT22;333;48.800;9.530;2023-12-07T01:29:01;1.80;99.60
2260;DHT22;333;48.800;9.530;2023-12-07T01:31:28;1.60;99.60
2260;DHT22;333;48.800;9.530;2023-12-07T01:33:56;1.60;99.60
2260;DHT22;333;48.800;9.530;2023-12-07T01:36:24;1.60;99.60
2260;DHT22;333;48.800;9.530;2023-12-07T01:38:51;1.60;99.60
2260;DHT22;333;48.800;9.530;2023-12-07T01:41:18;1.50;99.60
2260;DHT22;333;48.800;9.530;2023-12-07T01:43:45;1.60;99.60
2260;DHT22;333;48.800;9.530;2023-12-07T01:46:13;1.60;99.60
2260;DHT22;333;48.800;9.530;2023-12-07T01:48:40;1.80;99.60
2260;DHT22;333;48.800;9.530;2023-12-07T01:51:09;1.80;99.60
2260;DHT22;333;48.800;9.530;2023-12-07T01:53:39;1.80;99.60
2260;DHT22;333;48.800;9.530;2023-12-07T01:56:07;1.80;99.60
2260;DHT22;333;48.800;9.530;2023-12-07T01:58:36;1.70;99.60
2260;DHT22;333;48.800;9.530;2023-12-07T02:01:03;1.70;99.60
2260;DHT22;333;48.800;9.530;2023-12-07T02:03:31;1.60;99.60
2260;DHT22;333;48.800;9.530;2023-12-07T02:05:58;1.60;99.60
2260;DHT22;333;48.800;9.530;2023-12-07T02:08:28;1.70;99.60
2260;DHT22;333;48.800;9.530;2023-12-07T02:10:55;1.80;99.60
2260;DHT22;333;48.800;9.530;2023-12-07T02:13:22;1.80;99.60
2260;DHT22;333;48.800;9.530;2023-12-07T02:15:49;1.70;99.60
2260;DHT22;333;48.800;9.530;2023-12-07T02:18:24;1.70;99.60
2260;DHT22;333;48.800;9.530;2023-12-07T02:20:58;1.70;99.60
2260;DHT22;333;48.800;9.530;2023-12-07T02:23:32;1.80;99.60
2260;DHT22;333;48.800;9.530;2023-12-07T02:26:03;1.80;99.60
2260;DHT22;333;48.800;9.530;2023-12-07T02:28:34;1.70;99.60
2260;DHT22;333;48.800;9.530;2023-12-07T02:31:01;1.70;99.60
2260;DHT22;333;48.800;9.530;2023-12-07T02:33:47;1.90;99.60
2260;DHT22;333;48.800;9.530;2023-12-07T02:36:15;1.80;99.60
2260;DHT22;333;48.800;9.530;2023-12-07T02:38:46;1.90;99.60
2260;DHT22;333;48.800;9.530;2023-12-07T02:41:16;1.90;99.60
2260;DHT22;333;48.800;9.530;2023-12-07T02:43:45;1.80;99.60
2260;DHT22;333;48.800;9.530;2023-12-07T02:46:12;1.90;99.60
2260;DHT22;333;48.800;9.530;2023-12-07T02:48:39;2.00;99.60
2260;DHT22;333;48.800;9.530;2023-12-07T02:51:06;1.90;99.60
2260;DHT22;333;48.800;9.530;2023-12-07T02:53:34;1.90;99.60
2260;DHT22;333;48.800;9.530;2023-12-07T02:56:01;1.90;99.60
2260;DHT22;333;48.800;9.530;2023-12-07T02:58:28;1.90;99.60
2260;DHT22;333;48.800;9.530;2023-12-07T03:00:56;1.90;99.60
2260;DHT22;333;48.800;9.530;2023-12-07T03:03:24;1.80;99.60
2260;DHT22;333;48.800;9.530;2023-12-07T03:05:51;1.70;99.60
2260;DHT22;333;48.800;9.530;2023-12-07T03:08:18;1.80;99.60
2260;DHT22;333;48.800;9.530;2023-12-07T03:10:45;1.80;99.60
2260;DHT22;333;48.800;9.530;2023-12-07T03:13:12;1.70;99.60
2260;DHT22;333;48.800;9.530;2023-12-07T03:15:39;1.70;99.60
2260;DHT22;333;48.800;9.530;2023-12-07T03:18:08;1.80;99.60
2260;DHT22;333;48.800;9.530;2023-12-07T03:20:35;1.70;99.60
2260;DHT22;333;48.800;9.530;2023-12-07T03:23:02;1.60;99.60
2260;DHT22;333;48.800;9.530;2023-12-07T03:25:29;1.60;99.60
2260;DHT22;333;48.800;9.530;2023-12-07T03:27:56;1.60;99.60
2260;DHT22;333;48.800;9.530;2023-12-07T03:30:23;1.70;99.60
2260;DHT22;333;48.800;9.530;2023-12-07T03:32:50;1.70;99.60
2260;DHT22;333;48.800;9.530;2023-12-07T03:35:19;1.50;99.60
2260;DHT22;333;48.800;9.530;2023-12-07T03:37:46;1.50;99.60
2260;DHT22;333;48.800;9.530;2023-12-07T03:40:13;1.50;99.60
2260;DHT22;333;48.800;9.530;2023-12-07T03:42:40;1.50;99.60
2260;DHT22;333;48.800;9.530;2023-12-07T03:45:07;1.60;99.60
2260;DHT22;333;48.800;9.530;2023-12-07T03:47:35;1.50;99.60
2260;DHT22;333;48.800;9.530;2023-12-07T03:50:02;1.50;99.60
2260;DHT22;333;48.800;9.530;2023-12-07T03:52:30;1.50;99.60
2260;DHT22;333;48.800;9.530;2023-12-07T03:54:57;1.40;99.60
2260;DHT22;333;48.800;9.530;2023-12-07T03:57:24;1.40;99.60
2260;DHT22;333;48.800;9.530;2023-12-07T03:59:51;1.40;99.60
2260;DHT22;333;48.800;9.530;2023-12-07T04:02:19;1.40;99.60
2260;DHT22;333;48.800;9.530;2023-12-07T04:04:46;1.30;99.60
2260;DHT22;333;48.800;9.530;2023-12-07T04:07:13;1.40;99.60
2260;DHT22;333;48.800;9.530;2023-12-07T04:09:41;1.40;99.60
2260;DHT22;333;48.800;9.530;2023-12-07T04:12:09;1.40;99.60
2260;DHT22;333;48.800;9.530;2023-12-07T04:14:36;1.40;99.60
2260;DHT22;333;48.800;9.530;2023-12-07T04:17:03;1.40;99.60
2260;DHT22;333;48.800;9.530;2023-12-07T04:19:30;1.50;99.60
2260;DHT22;333;48.800;9.530;2023-12-07T04:21:57;1.60;99.60
2260;DHT22;333;48.800;9.530;2023-12-07T04:24:24;1.70;99.60
2260;DHT22;333;48.800;9.530;2023-12-07T04:26:52;1.70;99.60
2260;DHT22;333;48.800;9.530;2023-12-07T04:29:19;1.60;99.60
2260;DHT22;333;48.800;9.530;2023-12-07T04:31:46;1.40;99.60
2260;DHT22;333;48.800;9.530;2023-12-07T04:34:13;1.30;99.60
2260;DHT22;333;48.800;9.530;2023-12-07T04:36:40;1.30;99.60
2260;DHT22;333;48.800;9.530;2023-12-07T04:39:07;1.30;99.60
2260;DHT22;333;48.800;9.530;2023-12-07T04:41:34;1.30;99.60
2260;DHT22;333;48.800;9.530;2023-12-07T04:44:03;1.50;99.60
2260;DHT22;333;48.800;9.530;2023-12-07T04:46:30;1.50;99.60
2260;DHT22;333;48.800;9.530;2023-12-07T04:48:57;1.30;99.60
2260;DHT22;333;48.800;9.530;2023-12-07T04:51:24;1.30;99.60
2260;DHT22;333;48.800;9.530;2023-12-07T04:53:51;1.20;99.60
2260;DHT22;333;48.800;9.530;2023-12-07T04:56:18;1.20;99.60
2260;DHT22;333;48.800;9.530;2023-12-07T04:58:44;1.30;99.60
2260;DHT22;333;48.800;9.530;2023-12-07T05:01:13;1.30;99.60
2260;DHT22;333;48.800;9.530;2023-12-07T05:03:39;1.50;99.60
2260;DHT22;333;48.800;9.530;2023-12-07T05:06:07;1.30;99.60
2260;DHT22;333;48.800;9.530;2023-12-07T05:08:34;1.20;99.60
2260;DHT22;333;48.800;9.530;2023-12-07T05:11:01;1.10;99.60
2260;DHT22;333;48.800;9.530;2023-12-07T05:13:28;1.10;99.60
2260;DHT22;333;48.800;9.530;2023-12-07T05:15:55;1.00;99.60
2260;DHT22;333;48.800;9.530;2023-12-07T05:18:24;0.90;99.60
2260;DHT22;333;48.800;9.530;2023-12-07T05:20:51;0.70;99.60
2260;DHT22;333;48.800;9.530;2023-12-07T05:23:18;0.50;99.60
2260;DHT22;333;48.800;9.530;2023-12-07T05:25:45;0.40;99.60
2260;DHT22;333;48.800;9.530;2023-12-07T05:28:12;0.40;99.60
2260;DHT22;333;48.800;9.530;2023-12-07T05:30:39;0.30;99.60
2260;DHT22;333;48.800;9.530;2023-12-07T05:33:06;0.30;99.60
2260;DHT22;333;48.800;9.530;2023-12-07T05:35:35;0.20;99.60
2260;DHT22;333;48.800;9.530;2023-12-07T05:38:02;0.00;99.60
2260;DHT22;333;48.800;9.530;2023-12-07T05:40:30;-0.10;99.60
2260;DHT22;333;48.800;9.530;2023-12-07T05:42:57;-0.10;99.60
2260;DHT22;333;48.800;9.530;2023-12-07T05:45:24;0.10;99.60
2260;DHT22;333;48.800;9.530;2023-12-07T05:47:51;0.10;99.60
2260;DHT22;333;48.800;9.530;2023-12-07T05:50:18;0.30;99.60
2260;DHT22;333;48.800;9.530;2023-12-07T05:52:47;0.40;99.60
2260;DHT22;333;48.800;9.530;2023-12-07T05:55:15;0.40;99.60
2260;DHT22;333;48.800;9.530;2023-12-07T05:57:44;0.50;99.60
2260;DHT22;333;48.800;9.530;2023-12-07T06:00:13;0.60;99.60
2260;DHT22;333;48.800;9.530;2023-12-07T06:02:41;0.70;99.60
2260;DHT22;333;48.800;9.530;2023-12-07T06:05:09;0.70;99.60
2260;DHT22;333;48.800;9.530;2023-12-07T06:07:36;0.70;99.60
2260;DHT22;333;48.800;9.530;2023-12-07T06:10:05;0.60;99.60
2260;DHT22;333;48.800;9.530;2023-12-07T06:12:32;0.60;99.60
2260;DHT22;333;48.800;9.530;2023-12-07T06:14:59;0.50;99.60
2260;DHT22;333;48.800;9.530;2023-12-07T06:17:26;0.60;99.60
2260;DHT22;333;48.800;9.530;2023-12-07T06:19:53;0.50;99.60
2260;DHT22;333;48.800;9.530;2023-12-07T06:22:20;0.60;99.60
2260;DHT22;333;48.800;9.530;2023-12-07T06:24:47;0.60;99.60
2260;DHT22;333;48.800;9.530;2023-12-07T06:27:16;0.60;99.60
2260;DHT22;333;48.800;9.530;2023-12-07T06:29:44;0.50;99.60
2260;DHT22;333;48.800;9.530;2023-12-07T06:32:10;0.50;99.60
2260;DHT22;333;48.800;9.530;2023-12-07T06:34:40;0.50;99.60
2260;DHT22;333;48.800;9.530;2023-12-07T06:37:07;0.50;99.60
2260;DHT22;333;48.800;9.530;2023-12-07T06:39:36;0.50;99.60
2260;DHT22;333;48.800;9.530;2023-12-07T06:42:03;0.50;99.60
2260;DHT22;333;48.800;9.530;2023-12-07T06:44:31;0.40;99.60
2260;DHT22;333;48.800;9.530;2023-12-07T06:46:58;0.40;99.60
2260;DHT22;333;48.800;9.530;2023-12-07T06:49:28;0.30;99.60
2260;DHT22;333;48.800;9.530;2023-12-07T06:51:55;0.40;99.60
2260;DHT22;333;48.800;9.530;2023-12-07T06:54:22;0.50;99.60
2260;DHT22;333;48.800;9.530;2023-12-07T06:56:49;0.40;99.60
2260;DHT22;333;48.800;9.530;2023-12-07T06:59:16;0.30;99.60
2260;DHT22;333;48.800;9.530;2023-12-07T07:01:45;0.30;99.60
2260;DHT22;333;48.800;9.530;2023-12-07T07:04:13;0.40;99.60
2260;DHT22;333;48.800;9.530;2023-12-07T07:06:40;0.30;99.60
2260;DHT22;333;48.800;9.530;2023-12-07T07:09:07;0.20;99.60
2260;DHT22;333;48.800;9.530;2023-12-07T07:11:34;0.10;99.60
2260;DHT22;333;48.800;9.530;2023-12-07T07:14:02;0.10;99.60
2260;DHT22;333;48.800;9.530;2023-12-07T07:16:30;0.10;99.60
2260;DHT22;333;48.800;9.530;2023-12-07T07:18:58;0.00;99.60
2260;DHT22;333;48.800;9.530;2023-12-07T07:21:26;0.00;99.60
2260;DHT22;333;48.800;9.530;2023-12-07T07:23:52;0.20;99.60
2260;DHT22;333;48.800;9.530;2023-12-07T07:26:20;0.20;99.60
2260;DHT22;333;48.800;9.530;2023-12-07T07:28:46;0.00;99.60
2260;DHT22;333;48.800;9.530;2023-12-07T07:31:14;-0.10;99.60
2260;DHT22;333;48.800;9.530;2023-12-07T07:33:40;0.10;99.60
2260;DHT22;333;48.800;9.530;2023-12-07T07:36:09;0.00;99.60
2260;DHT22;333;48.800;9.530;2023-12-07T07:38:37;0.00;99.60
2260;DHT22;333;48.800;9.530;2023-12-07T07:41:05;0.00;99.60
2260;DHT22;333;48.800;9.530;2023-12-07T07:43:32;0.30;99.60
2260;DHT22;333;48.800;9.530;2023-12-07T07:46:00;0.20;99.60
2260;DHT22;333;48.800;9.530;2023-12-07T07:48:27;0.10;99.60
2260;DHT22;333;48.800;9.530;2023-12-07T07:50:53;0.00;99.60
2260;DHT22;333;48.800;9.530;2023-12-07T07:53:22;0.10;99.60
2260;DHT22;333;48.800;9.530;2023-12-07T07:55:49;0.00;99.60
2260;DHT22;333;48.800;9.530;2023-12-07T07:58:16;0.10;99.60
2260;DHT22;333;48.800;9.530;2023-12-07T08:00:43;0.20;99.60
2260;DHT22;333;48.800;9.530;2023-12-07T08:03:12;0.20;99.60
2260;DHT22;333;48.800;9.530;2023-12-07T08:06:14;0.30;99.60
2260;DHT22;333;48.800;9.530;2023-12-07T08:08:42;0.20;99.60
2260;DHT22;333;48.800;9.530;2023-12-07T08:11:10;0.30;99.60
2260;DHT22;333;48.800;9.530;2023-12-07T08:13:39;0.10;99.60
2260;DHT22;333;48.800;9.530;2023-12-07T08:16:15;0.10;99.60
2260;DHT22;333;48.800;9.530;2023-12-07T08:18:42;0.20;99.60
2260;DHT22;333;48.800;9.530;2023-12-07T08:21:13;0.20;99.60
2260;DHT22;333;48.800;9.530;2023-12-07T08:23:47;0.30;99.60
2260;DHT22;333;48.800;9.530;2023-12-07T08:26:14;0.40;99.60
2260;DHT22;333;48.800;9.530;2023-12-07T08:28:42;0.30;99.60
2260;DHT22;333;48.800;9.530;2023-12-07T08:31:09;0.40;99.60
2260;DHT22;333;48.800;9.530;2023-12-07T08:33:36;0.50;99.60
2260;DHT22;333;48.800;9.530;2023-12-07T08:36:05;0.50;99.60
2260;DHT22;333;48.800;9.530;2023-12-07T08:38:33;0.60;99.60
2260;DHT22;333;48.800;9.530;2023-12-07T08:41:02;0.60;99.60
2260;DHT22;333;48.800;9.530;2023-12-07T08:43:29;0.50;99.60
2260;DHT22;333;48.800;9.530;2023-12-07T08:45:57;0.40;99.60
2260;DHT22;333;48.800;9.530;2023-12-07T08:48:24;0.40;99.60
2260;DHT22;333;48.800;9.530;2023-12-07T08:50:51;0.60;99.60
2260;DHT22;333;48.800;9.530;2023-12-07T08:53:18;0.50;99.60
2260;DHT22;333;48.800;9.530;2023-12-07T08:55:45;0.60;99.60
2260;DHT22;333;48.800;9.530;2023-12-07T08:58:13;0.50;99.60
2260;DHT22;333;48.800;9.530;2023-12-07T09:00:40;0.60;99.60
2260;DHT22;333;48.800;9.530;2023-12-07T09:03:07;0.60;99.60
2260;DHT22;333;48.800;9.530;2023-12-07T09:05:33;0.50;99.60
2260;DHT22;333;48.800;9.530;2023-12-07T09:08:00;0.30;99.60
2260;DHT22;333;48.800;9.530;2023-12-07T09:10:27;0.20;99.60
2260;DHT22;333;48.800;9.530;2023-12-07T09:12:54;0.00;99.60
2260;DHT22;333;48.800;9.530;2023-12-07T09:15:23;0.00;99.60
2260;DHT22;333;48.800;9.530;2023-12-07T09:17:50;0.20;99.60
2260;DHT22;333;48.800;9.530;2023-12-07T09:20:17;0.30;99.60
2260;DHT22;333;48.800;9.530;2023-12-07T09:22:45;0.30;99.60
2260;DHT22;333;48.800;9.530;2023-12-07T09:25:12;0.30;99.60
2260;DHT22;333;48.800;9.530;2023-12-07T09:27:39;0.20;99.60
2260;DHT22;333;48.800;9.530;2023-12-07T09:30:07;0.50;99.60
2260;DHT22;333;48.800;9.530;2023-12-07T09:32:37;0.50;99.60
2260;DHT22;333;48.800;9.530;2023-12-07T09:35:05;0.40;99.60
2260;DHT22;333;48.800;9.530;2023-12-07T09:37:32;0.60;99.60
2260;DHT22;333;48.800;9.530;2023-12-07T09:39:59;0.40;99.60
2260;DHT22;333;48.800;9.530;2023-12-07T09:42:27;0.60;99.60
2260;DHT22;333;48.800;9.530;2023-12-07T09:44:54;0.80;99.60
2260;DHT22;333;48.800;9.530;2023-12-07T09:47:21;0.60;99.60
2260;DHT22;333;48.800;9.530;2023-12-07T09:49:50;0.80;99.60
2260;DHT22;333;48.800;9.530;2023-12-07T09:52:17;0.90;99.60
2260;DHT22;333;48.800;9.530;2023-12-07T09:54:47;1.00;99.60
2260;DHT22;333;48.800;9.530;2023-12-07T09:57:16;1.20;99.60
2260;DHT22;333;48.800;9.530;2023-12-07T09:59:42;1.10;99.60
2260;DHT22;333;48.800;9.530;2023-12-07T10:02:10;1.10;99.60
2260;DHT22;333;48.800;9.530;2023-12-07T10:04:37;1.10;99.60
2260;DHT22;333;48.800;9.530;2023-12-07T10:07:05;1.30;99.60
2260;DHT22;333;48.800;9.530;2023-12-07T10:09:34;1.50;99.60
2260;DHT22;333;48.800;9.530;2023-12-07T10:12:05;1.60;99.60
2260;DHT22;333;48.800;9.530;2023-12-07T10:14:32;1.90;99.60
2260;DHT22;333;48.800;9.530;2023-12-07T10:17:00;2.10;99.60
2260;DHT22;333;48.800;9.530;2023-12-07T10:19:28;2.20;99.60
2260;DHT22;333;48.800;9.530;2023-12-07T10:21:55;2.40;99.60
2260;DHT22;333;48.800;9.530;2023-12-07T10:24:25;2.40;99.60
2260;DHT22;333;48.800;9.530;2023-12-07T10:26:52;2.50;99.60
2260;DHT22;333;48.800;9.530;2023-12-07T10:29:19;2.50;99.60
2260;DHT22;333;48.800;9.530;2023-12-07T10:31:49;2.70;99.60
2260;DHT22;333;48.800;9.530;2023-12-07T10:34:18;2.90;99.60
2260;DHT22;333;48.800;9.530;2023-12-07T10:36:46;3.30;99.60
2260;DHT22;333;48.800;9.530;2023-12-07T10:39:14;2.90;99.60
2260;DHT22;333;48.800;9.530;2023-12-07T10:41:45;3.20;99.60
2260;DHT22;333;48.800;9.530;2023-12-07T10:44:14;3.20;99.60
2260;DHT22;333;48.800;9.530;2023-12-07T10:46:43;3.20;99.60
2260;DHT22;333;48.800;9.530;2023-12-07T10:49:15;3.40;99.60
2260;DHT22;333;48.800;9.530;2023-12-07T10:51:48;3.50;99.60
2260;DHT22;333;48.800;9.530;2023-12-07T10:54:18;3.90;99.60
2260;DHT22;333;48.800;9.530;2023-12-07T10:56:50;4.20;99.60
2260;DHT22;333;48.800;9.530;2023-12-07T10:59:18;4.30;99.60
2260;DHT22;333;48.800;9.530;2023-12-07T11:01:47;4.50;99.60
2260;DHT22;333;48.800;9.530;2023-12-07T11:04:15;4.90;99.60
2260;DHT22;333;48.800;9.530;2023-12-07T11:06:46;5.10;99.60
2260;DHT22;333;48.800;9.530;2023-12-07T11:09:18;5.20;99.60
2260;DHT22;333;48.800;9.530;2023-12-07T11:11:51;5.00;99.60
2260;DHT22;333;48.800;9.530;2023-12-07T11:14:19;4.80;99.60
2260;DHT22;333;48.800;9.530;2023-12-07T11:16:47;4.50;99.60
2260;DHT22;333;48.800;9.530;2023-12-07T11:19:44;4.60;99.60
2260;DHT22;333;48.800;9.530;2023-12-07T11:22:12;4.90;99.60
2260;DHT22;333;48.800;9.530;2023-12-07T11:24:52;5.00;99.60
2260;DHT22;333;48.800;9.530;2023-12-07T11:27:22;5.50;99.60
2260;DHT22;333;48.800;9.530;2023-12-07T11:29:49;5.90;99.60
2260;DHT22;333;48.800;9.530;2023-12-07T11:32:16;6.50;99.60
2260;DHT22;333;48.800;9.530;2023-12-07T11:34:44;6.70;99.60
2260;DHT22;333;48.800;9.530;2023-12-07T11:37:15;6.90;99.60
2260;DHT22;333;48.800;9.530;2023-12-07T11:39:42;6.90;99.60
2260;DHT22;333;48.800;9.530;2023-12-07T11:42:12;7.10;99.60
2260;DHT22;333;48.800;9.530;2023-12-07T11:44:41;6.90;99.60
2260;DHT22;333;48.800;9.530;2023-12-07T11:47:12;7.10;99.60
2260;DHT22;333;48.800;9.530;2023-12-07T11:49:42;7.10;99.60
2260;DHT22;333;48.800;9.530;2023-12-07T11:52:14;7.20;99.60
2260;DHT22;333;48.800;9.530;2023-12-07T11:54:43;6.70;99.60
2260;DHT22;333;48.800;9.530;2023-12-07T11:57:11;6.60;99.60
2260;DHT22;333;48.800;9.530;2023-12-07T11:59:39;6.50;99.60
2260;DHT22;333;48.800;9.530;2023-12-07T12:02:06;6.70;99.60
2260;DHT22;333;48.800;9.530;2023-12-07T12:04:33;6.60;99.60
2260;DHT22;333;48.800;9.530;2023-12-07T12:07:02;6.40;99.60
2260;DHT22;333;48.800;9.530;2023-12-07T12:09:29;6.20;99.60
2260;DHT22;333;48.800;9.530;2023-12-07T12:11:57;5.80;99.60
2260;DHT22;333;48.800;9.530;2023-12-07T12:14:26;5.80;99.60
2260;DHT22;333;48.800;9.530;2023-12-07T12:16:55;5.50;99.60
2260;DHT22;333;48.800;9.530;2023-12-07T12:19:22;5.40;99.60
2260;DHT22;333;48.800;9.530;2023-12-07T12:21:50;5.40;99.60
2260;DHT22;333;48.800;9.530;2023-12-07T12:24:17;5.50;99.60
2260;DHT22;333;48.800;9.530;2023-12-07T12:26:46;5.50;99.60
2260;DHT22;333;48.800;9.530;2023-12-07T12:29:14;5.40;99.60
2260;DHT22;333;48.800;9.530;2023-12-07T12:31:42;5.40;99.60
2260;DHT22;333;48.800;9.530;2023-12-07T12:34:10;5.40;99.60
2260;DHT22;333;48.800;9.530;2023-12-07T12:36:39;5.40;99.60
2260;DHT22;333;48.800;9.530;2023-12-07T12:39:07;5.40;99.60
2260;DHT22;333;48.800;9.530;2023-12-07T12:41:34;5.50;99.60
2260;DHT22;333;48.800;9.530;2023-12-07T12:44:01;5.40;99.60
2260;DHT22;333;48.800;9.530;2023-12-07T12:46:28;5.30;99.60
2260;DHT22;333;48.800;9.530;2023-12-07T12:48:56;5.30;99.60
2260;DHT22;333;48.800;9.530;2023-12-07T12:51:25;5.30;99.60
2260;DHT22;333;48.800;9.530;2023-12-07T12:53:54;5.40;99.60
2260;DHT22;333;48.800;9.530;2023-12-07T12:56:21;5.40;99.60
2260;DHT22;333;48.800;9.530;2023-12-07T12:58:49;5.40;99.60
2260;DHT22;333;48.800;9.530;2023-12-07T13:01:16;5.40;99.60
2260;DHT22;333;48.800;9.530;2023-12-07T13:03:44;5.40;99.60
2260;DHT22;333;48.800;9.530;2023-12-07T13:06:12;5.40;99.60
2260;DHT22;333;48.800;9.530;2023-12-07T13:08:41;5.40;99.60
2260;DHT22;333;48.800;9.530;2023-12-07T13:11:09;5.50;99.60
2260;DHT22;333;48.800;9.530;2023-12-07T13:13:36;5.40;99.60
2260;DHT22;333;48.800;9.530;2023-12-07T13:16:04;5.40;99.60
2260;DHT22;333;48.800;9.530;2023-12-07T13:18:32;5.30;99.60
2260;DHT22;333;48.800;9.530;2023-12-07T13:20:59;5.30;99.60
2260;DHT22;333;48.800;9.530;2023-12-07T13:23:27;5.40;99.60
2260;DHT22;333;48.800;9.530;2023-12-07T13:25:56;5.40;99.60
2260;DHT22;333;48.800;9.530;2023-12-07T13:28:23;5.30;99.60
2260;DHT22;333;48.800;9.530;2023-12-07T13:30:50;5.40;99.60
2260;DHT22;333;48.800;9.530;2023-12-07T13:33:17;5.40;99.60
2260;DHT22;333;48.800;9.530;2023-12-07T13:35:44;5.40;99.60
2260;DHT22;333;48.800;9.530;2023-12-07T13:38:11;5.40;99.60
2260;DHT22;333;48.800;9.530;2023-12-07T13:40:38;5.40;99.60
2260;DHT22;333;48.800;9.530;2023-12-07T13:43:07;5.40;99.60
2260;DHT22;333;48.800;9.530;2023-12-07T13:45:34;5.40;99.60
2260;DHT22;333;48.800;9.530;2023-12-07T13:48:01;5.30;99.60
2260;DHT22;333;48.800;9.530;2023-12-07T13:50:28;5.20;99.60
2260;DHT22;333;48.800;9.530;2023-12-07T13:52:55;5.20;99.60
2260;DHT22;333;48.800;9.530;2023-12-07T13:55:22;5.20;99.60
2260;DHT22;333;48.800;9.530;2023-12-07T13:57:50;5.20;99.60
2260;DHT22;333;48.800;9.530;2023-12-07T14:00:19;5.20;99.60
2260;DHT22;333;48.800;9.530;2023-12-07T14:02:48;5.20;99.60
2260;DHT22;333;48.800;9.530;2023-12-07T14:05:15;5.10;99.60
2260;DHT22;333;48.800;9.530;2023-12-07T14:07:44;5.20;99.60
2260;DHT22;333;48.800;9.530;2023-12-07T14:10:11;5.30;99.60
2260;DHT22;333;48.800;9.530;2023-12-07T14:12:39;5.30;99.60
2260;DHT22;333;48.800;9.530;2023-12-07T14:15:07;5.40;99.60
2260;DHT22;333;48.800;9.530;2023-12-07T14:17:36;5.30;99.60
2260;DHT22;333;48.800;9.530;2023-12-07T14:20:11;5.30;99.60
2260;DHT22;333;48.800;9.530;2023-12-07T14:22:39;5.10;99.60
2260;DHT22;333;48.800;9.530;2023-12-07T14:25:07;5.10;99.60
2260;DHT22;333;48.800;9.530;2023-12-07T14:27:34;5.10;99.60
2260;DHT22;333;48.800;9.530;2023-12-07T14:30:01;5.20;99.60
2260;DHT22;333;48.800;9.530;2023-12-07T14:32:29;5.10;99.60
2260;DHT22;333;48.800;9.530;2023-12-07T14:34:57;5.00;99.60
2260;DHT22;333;48.800;9.530;2023-12-07T14:37:24;4.90;99.60
2260;DHT22;333;48.800;9.530;2023-12-07T14:39:51;4.90;99.60
2260;DHT22;333;48.800;9.530;2023-12-07T14:42:18;4.80;99.60
2260;DHT22;333;48.800;9.530;2023-12-07T14:44:45;4.70;99.60
2260;DHT22;333;48.800;9.530;2023-12-07T14:47:13;4.60;99.60
2260;DHT22;333;48.800;9.530;2023-12-07T14:49:41;4.40;99.60
2260;DHT22;333;48.800;9.530;2023-12-07T14:52:10;4.20;99.60
2260;DHT22;333;48.800;9.530;2023-12-07T14:54:37;4.10;99.60
2260;DHT22;333;48.800;9.530;2023-12-07T14:57:04;4.00;99.60
2260;DHT22;333;48.800;9.530;2023-12-07T14:59:34;3.80;99.60
2260;DHT22;333;48.800;9.530;2023-12-07T15:02:02;3.70;99.60
2260;DHT22;333;48.800;9.530;2023-12-07T15:04:29;3.70;99.60
2260;DHT22;333;48.800;9.530;2023-12-07T15:06:57;3.60;99.60
2260;DHT22;333;48.800;9.530;2023-12-07T15:09:26;3.40;99.60
2260;DHT22;333;48.800;9.530;2023-12-07T15:11:54;3.30;99.60
2260;DHT22;333;48.800;9.530;2023-12-07T15:14:21;3.10;99.60
2260;DHT22;333;48.800;9.530;2023-12-07T15:16:49;3.20;99.60
2260;DHT22;333;48.800;9.530;2023-12-07T15:19:17;3.20;99.60
2260;DHT22;333;48.800;9.530;2023-12-07T15:21:44;3.20;99.60
2260;DHT22;333;48.800;9.530;2023-12-07T15:24:11;3.10;99.60
2260;DHT22;333;48.800;9.530;2023-12-07T15:26:43;3.10;99.60
2260;DHT22;333;48.800;9.530;2023-12-07T15:29:10;3.20;99.60
2260;DHT22;333;48.800;9.530;2023-12-07T15:31:37;3.10;99.60
2260;DHT22;333;48.800;9.530;2023-12-07T15:34:04;3.00;99.60
2260;DHT22;333;48.800;9.530;2023-12-07T15:36:35;2.90;99.60
2260;DHT22;333;48.800;9.530;2023-12-07T15:39:02;2.90;99.60
2260;DHT22;333;48.800;9.530;2023-12-07T15:41:29;2.90;99.60
2260;DHT22;333;48.800;9.530;2023-12-07T15:43:58;2.90;99.60
2260;DHT22;333;48.800;9.530;2023-12-07T15:46:25;2.80;99.60
2260;DHT22;333;48.800;9.530;2023-12-07T15:48:52;2.60;99.60
2260;DHT22;333;48.800;9.530;2023-12-07T15:51:20;2.50;99.60
2260;DHT22;333;48.800;9.530;2023-12-07T15:53:47;2.40;99.60
2260;DHT22;333;48.800;9.530;2023-12-07T15:56:14;2.40;99.60
2260;DHT22;333;48.800;9.530;2023-12-07T15:58:41;2.40;99.60
2260;DHT22;333;48.800;9.530;2023-12-07T16:01:09;2.50;99.60
2260;DHT22;333;48.800;9.530;2023-12-07T16:03:37;2.60;99.60
2260;DHT22;333;48.800;9.530;2023-12-07T16:06:04;2.60;99.60
2260;DHT22;333;48.800;9.530;2023-12-07T16:08:34;2.60;99.60
2260;DHT22;333;48.800;9.530;2023-12-07T16:11:01;2.60;99.60
2260;DHT22;333;48.800;9.530;2023-12-07T16:13:28;2.60;99.60
2260;DHT22;333;48.800;9.530;2023-12-07T16:15:55;2.60;99.60
2260;DHT22;333;48.800;9.530;2023-12-07T16:18:24;2.50;99.60
2260;DHT22;333;48.800;9.530;2023-12-07T16:20:51;2.40;99.60
2260;DHT22;333;48.800;9.530;2023-12-07T16:23:18;2.30;99.60
2260;DHT22;333;48.800;9.530;2023-12-07T16:25:46;2.30;99.60
2260;DHT22;333;48.800;9.530;2023-12-07T16:28:13;2.10;99.60
2260;DHT22;333;48.800;9.530;2023-12-07T16:30:40;2.10;99.60
2260;DHT22;333;48.800;9.530;2023-12-07T16:33:07;2.10;99.60
2260;DHT22;333;48.800;9.530;2023-12-07T16:35:35;2.10;99.60
2260;DHT22;333;48.800;9.530;2023-12-07T16:38:02;2.10;99.60